createdAt,value
2018-12-30T00:01:40.225Z,2.54
2018-12-30T00:04:08.653Z,2.58
2018-12-30T00:06:37.524Z,2.58
2018-12-30T00:09:06.839Z,2.61
2018-12-30T00:11:35.676Z,2.62
2018-12-30T00:14:04.100Z,2.64
2018-12-30T00:16:32.569Z,2.66
2018-12-30T00:19:00.931Z,2.66
2018-12-30T00:21:29.329Z,2.63
2018-12-30T00:23:57.733Z,2.66
2018-12-30T00:26:26.091Z,2.69
2018-12-30T00:28:54.553Z,2.69
2018-12-30T00:31:22.912Z,2.69
2018-12-30T00:33:51.302Z,2.69
2018-12-30T00:36:19.665Z,2.72
2018-12-30T00:38:48.069Z,2.74
2018-12-30T00:41:16.432Z,2.72
2018-12-30T00:43:45.336Z,2.76
2018-12-30T00:46:13.772Z,2.75
2018-12-30T00:48:42.175Z,2.74
2018-12-30T00:51:17.000Z,2.77
2018-12-30T00:53:40.734Z,2.80
2018-12-30T00:56:09.096Z,2.93
2018-12-30T00:58:37.489Z,3.30
2018-12-30T01:01:06.138Z,3.59
2018-12-30T01:03:34.612Z,3.18
2018-12-30T01:06:03.049Z,2.99
2018-12-30T01:08:31.442Z,2.96
2018-12-30T01:10:59.896Z,2.96
2018-12-30T01:13:28.311Z,2.95
2018-12-30T01:15:56.743Z,2.98
2018-12-30T01:18:25.224Z,2.98
2018-12-30T01:20:53.613Z,2.98
2018-12-30T01:23:22.104Z,2.98
2018-12-30T01:25:50.585Z,3.00
2018-12-30T01:28:18.988Z,3.00
2018-12-30T01:30:47.391Z,3.02
2018-12-30T01:33:15.836Z,3.03
2018-12-30T01:35:44.221Z,3.05
2018-12-30T01:38:12.585Z,3.09
2018-12-30T01:40:41.224Z,3.09
2018-12-30T01:43:09.580Z,3.11
2018-12-30T01:45:37.990Z,3.13
2018-12-30T01:48:06.363Z,3.16
2018-12-30T01:50:34.823Z,3.18
2018-12-30T01:53:03.256Z,3.18
2018-12-30T01:55:31.649Z,3.19
2018-12-30T01:58:00.011Z,3.17
2018-12-30T02:00:28.490Z,3.20
2018-12-30T02:02:56.847Z,3.20
2018-12-30T02:05:25.327Z,3.19
2018-12-30T02:07:53.744Z,3.17
2018-12-30T02:10:22.153Z,3.19
2018-12-30T02:12:50.520Z,3.18
2018-12-30T02:15:18.937Z,3.20
2018-12-30T02:17:49.190Z,3.20
2018-12-30T02:20:17.878Z,3.20
2018-12-30T02:22:46.323Z,3.20
2018-12-30T02:25:14.732Z,3.19
2018-12-30T02:27:43.179Z,3.20
2018-12-30T02:30:11.603Z,3.17
2018-12-30T02:32:40.367Z,3.19
2018-12-30T02:35:08.807Z,3.21
2018-12-30T02:37:37.214Z,3.19
2018-12-30T02:40:05.627Z,3.22
2018-12-30T02:42:34.090Z,3.24
2018-12-30T02:45:02.862Z,3.25
2018-12-30T02:47:33.336Z,3.25
2018-12-30T02:50:01.694Z,3.23
2018-12-30T02:52:30.091Z,3.26
2018-12-30T02:54:58.484Z,3.24
2018-12-30T02:57:27.421Z,3.25
2018-12-30T02:59:55.801Z,3.25
2018-12-30T03:02:24.221Z,3.27
2018-12-30T03:04:52.617Z,3.29
2018-12-30T03:07:20.979Z,3.27
2018-12-30T03:09:49.523Z,3.32
2018-12-30T03:12:17.917Z,3.28
2018-12-30T03:14:46.285Z,3.27
2018-12-30T03:17:14.686Z,3.28
2018-12-30T03:19:43.051Z,3.29
2018-12-30T03:22:11.723Z,3.29
2018-12-30T03:24:40.106Z,3.33
2018-12-30T03:27:08.587Z,3.35
2018-12-30T03:29:36.953Z,3.34
2018-12-30T03:32:05.316Z,3.36
2018-12-30T03:34:33.709Z,3.36
2018-12-30T03:37:02.101Z,3.42
2018-12-30T03:39:30.506Z,3.43
2018-12-30T03:41:59.022Z,3.41
2018-12-30T03:44:27.444Z,3.40
2018-12-30T03:46:55.816Z,3.44
2018-12-30T03:49:24.308Z,3.45
2018-12-30T03:51:52.674Z,3.47
2018-12-30T03:54:21.477Z,3.49
2018-12-30T03:56:49.834Z,3.49
2018-12-30T03:59:18.248Z,3.45
2018-12-30T04:01:46.622Z,3.45
2018-12-30T04:04:15.030Z,3.47
2018-12-30T04:06:43.445Z,3.46
2018-12-30T04:09:11.973Z,3.47
2018-12-30T04:11:42.051Z,3.50
2018-12-30T04:14:10.517Z,3.50
2018-12-30T04:16:38.953Z,3.50
2018-12-30T04:19:07.358Z,3.53
2018-12-30T04:21:35.729Z,3.52
2018-12-30T04:24:04.124Z,3.51
2018-12-30T04:26:32.550Z,3.56
2018-12-30T04:29:00.957Z,3.55
2018-12-30T04:31:29.401Z,3.59
2018-12-30T04:33:57.857Z,3.60
2018-12-30T04:36:26.232Z,3.63
2018-12-30T04:38:54.663Z,3.66
2018-12-30T04:41:23.029Z,3.70
2018-12-30T04:43:51.423Z,3.69
2018-12-30T04:46:19.824Z,3.67
2018-12-30T04:48:48.228Z,3.73
2018-12-30T04:51:16.590Z,3.72
2018-12-30T04:53:44.988Z,3.75
2018-12-30T04:56:13.354Z,3.75
2018-12-30T04:58:41.712Z,3.76
2018-12-30T05:01:10.191Z,3.76
2018-12-30T05:03:38.709Z,3.77
2018-12-30T05:06:07.185Z,3.77
2018-12-30T05:08:35.553Z,3.77
2018-12-30T05:11:04.388Z,3.76
2018-12-30T05:13:32.818Z,3.81
2018-12-30T05:16:01.217Z,3.82
2018-12-30T05:18:29.583Z,3.83
2018-12-30T05:20:58.062Z,3.85
2018-12-30T05:23:27.941Z,3.86
2018-12-30T05:25:56.333Z,3.86
2018-12-30T05:28:24.703Z,3.87
2018-12-30T05:30:53.103Z,3.84
2018-12-30T05:33:21.486Z,3.87
2018-12-30T05:35:51.259Z,3.86
2018-12-30T05:38:19.676Z,3.93
2018-12-30T05:40:48.076Z,3.93
2018-12-30T05:43:16.443Z,3.91
2018-12-30T05:45:44.882Z,3.92
2018-12-30T05:48:13.248Z,3.93
2018-12-30T05:50:41.606Z,3.97
2018-12-30T05:53:10.017Z,3.92
2018-12-30T05:55:38.453Z,3.93
2018-12-30T05:58:06.877Z,3.93
2018-12-30T06:00:35.230Z,3.93
2018-12-30T06:03:03.627Z,3.95
2018-12-30T06:05:32.053Z,3.94
2018-12-30T06:08:00.463Z,3.95
2018-12-30T06:10:28.831Z,3.92
2018-12-30T06:12:57.303Z,3.94
2018-12-30T06:15:25.662Z,3.92
2018-12-30T06:17:54.056Z,3.92
2018-12-30T06:20:22.427Z,3.92
2018-12-30T06:22:50.820Z,3.88
2018-12-30T06:25:19.305Z,3.91
2018-12-30T06:27:47.725Z,3.94
2018-12-30T06:30:16.116Z,3.93
2018-12-30T06:32:44.528Z,3.92
2018-12-30T06:35:12.956Z,3.92
2018-12-30T06:37:41.423Z,3.93
2018-12-30T06:40:11.545Z,3.95
2018-12-30T06:42:40.270Z,3.95
2018-12-30T06:45:08.658Z,3.97
2018-12-30T06:47:37.060Z,3.92
2018-12-30T06:50:06.513Z,3.93
2018-12-30T06:52:34.903Z,3.93
2018-12-30T06:55:03.269Z,3.92
2018-12-30T06:57:31.714Z,3.89
2018-12-30T07:00:00.086Z,3.94
2018-12-30T07:02:28.537Z,3.90
2018-12-30T07:04:56.920Z,3.85
2018-12-30T07:07:25.283Z,3.86
2018-12-30T07:09:53.734Z,3.87
2018-12-30T07:12:22.083Z,3.84
2018-12-30T07:14:50.544Z,3.85
2018-12-30T07:17:18.918Z,3.88
2018-12-30T07:19:47.320Z,3.87
2018-12-30T07:22:15.683Z,3.87
2018-12-30T07:24:44.078Z,3.84
2018-12-30T07:27:12.443Z,3.84
2018-12-30T07:29:40.854Z,3.80
2018-12-30T07:32:09.220Z,3.79
2018-12-30T07:34:37.611Z,3.83
2018-12-30T07:37:06.111Z,3.82
2018-12-30T07:39:34.635Z,3.81
2018-12-30T07:42:02.995Z,3.81
2018-12-30T07:44:31.393Z,3.80
2018-12-30T07:46:59.833Z,3.77
2018-12-30T07:49:28.218Z,3.72
2018-12-30T07:51:56.674Z,3.73
2018-12-30T07:54:25.051Z,3.76
2018-12-30T07:56:53.417Z,3.74
2018-12-30T07:59:21.847Z,3.72
2018-12-30T08:01:50.185Z,3.73
2018-12-30T08:04:18.600Z,3.78
2018-12-30T08:06:46.960Z,3.77
2018-12-30T08:09:15.321Z,3.81
2018-12-30T08:11:43.720Z,3.79
2018-12-30T08:14:12.155Z,3.78
2018-12-30T08:16:40.561Z,3.79
2018-12-30T08:19:08.932Z,3.79
2018-12-30T08:21:37.394Z,3.79
2018-12-30T08:24:05.756Z,3.78
2018-12-30T08:26:34.164Z,3.79
2018-12-30T08:29:02.528Z,3.85
2018-12-30T08:31:30.979Z,3.50
2018-12-30T08:33:59.401Z,3.86
2018-12-30T08:36:27.794Z,3.86
2018-12-30T08:38:56.816Z,3.85
2018-12-30T08:41:25.261Z,3.86
2018-12-30T08:43:53.614Z,3.87
2018-12-30T08:46:21.993Z,3.92
2018-12-30T08:48:50.426Z,3.84
2018-12-30T08:51:18.852Z,3.90
2018-12-30T08:53:47.272Z,3.88
2018-12-30T08:56:15.664Z,3.90
2018-12-30T08:58:44.101Z,3.92
2018-12-30T09:01:12.506Z,3.96
2018-12-30T09:03:40.957Z,4.04
2018-12-30T09:06:09.456Z,4.08
2018-12-30T09:08:37.976Z,4.01
2018-12-30T09:11:06.458Z,4.00
2018-12-30T09:13:34.883Z,3.98
2018-12-30T09:16:03.277Z,4.02
2018-12-30T09:18:31.650Z,3.98
2018-12-30T09:21:00.032Z,4.06
2018-12-30T09:23:28.437Z,4.06
2018-12-30T09:25:56.799Z,4.13
2018-12-30T09:28:25.271Z,4.15
2018-12-30T09:30:53.632Z,4.13
2018-12-30T09:33:23.624Z,4.16
2018-12-30T09:35:51.988Z,4.21
2018-12-30T09:38:20.382Z,4.21
2018-12-30T09:40:48.817Z,4.29
2018-12-30T09:43:17.327Z,4.27
2018-12-30T09:45:45.826Z,4.23
2018-12-30T09:48:16.881Z,4.26
2018-12-30T09:50:45.402Z,4.31
2018-12-30T09:53:15.172Z,4.25
2018-12-30T09:55:43.516Z,4.33
2018-12-30T09:58:11.942Z,4.29
2018-12-30T10:00:40.303Z,4.37
2018-12-30T10:03:08.773Z,4.32
2018-12-30T10:05:37.206Z,4.34
2018-12-30T10:08:05.598Z,4.34
2018-12-30T10:10:34.068Z,4.40
2018-12-30T10:13:02.679Z,4.38
2018-12-30T10:15:31.042Z,4.42
2018-12-30T10:17:59.433Z,4.45
2018-12-30T10:20:27.799Z,4.51
2018-12-30T10:22:58.934Z,4.50
2018-12-30T10:25:26.367Z,4.57
2018-12-30T10:27:56.020Z,4.59
2018-12-30T10:30:24.387Z,4.59
2018-12-30T10:32:54.310Z,4.68
2018-12-30T10:35:24.767Z,4.68
2018-12-30T10:37:53.206Z,4.73
2018-12-30T10:40:21.651Z,4.78
2018-12-30T10:42:50.071Z,4.86
2018-12-30T10:45:18.592Z,4.78
2018-12-30T10:47:46.945Z,4.84
2018-12-30T10:50:15.430Z,4.92
2018-12-30T10:52:43.800Z,4.87
2018-12-30T10:55:12.197Z,4.87
2018-12-30T10:57:40.555Z,4.92
2018-12-30T11:00:09.877Z,4.87
2018-12-30T11:02:38.315Z,4.94
2018-12-30T11:05:06.788Z,4.95
2018-12-30T11:07:35.234Z,5.00
2018-12-30T11:10:04.315Z,5.06
2018-12-30T11:12:32.841Z,5.11
2018-12-30T11:15:01.235Z,5.14
2018-12-30T11:17:29.689Z,5.13
2018-12-30T11:19:58.149Z,5.26
2018-12-30T11:22:26.926Z,5.32
2018-12-30T11:24:55.634Z,5.30
2018-12-30T11:27:24.009Z,5.39
2018-12-30T11:29:52.403Z,5.45
2018-12-30T11:32:20.832Z,5.31
2018-12-30T11:34:49.304Z,5.33
2018-12-30T11:37:18.076Z,5.44
2018-12-30T11:39:46.482Z,5.44
2018-12-30T11:42:14.910Z,5.48
2018-12-30T11:44:43.274Z,5.54
2018-12-30T11:47:12.531Z,5.53
2018-12-30T11:49:40.963Z,5.44
2018-12-30T11:52:09.380Z,5.57
2018-12-30T11:54:37.751Z,5.57
2018-12-30T11:57:06.207Z,5.56
2018-12-30T11:59:34.570Z,5.57
2018-12-30T12:02:03.112Z,5.62
2018-12-30T12:04:31.471Z,5.62
2018-12-30T12:06:59.870Z,5.54
2018-12-30T12:09:28.228Z,5.53
2018-12-30T12:11:56.936Z,5.58
2018-12-30T12:14:25.301Z,5.52
2018-12-30T12:16:53.697Z,5.59
2018-12-30T12:19:22.081Z,5.54
2018-12-30T12:21:50.540Z,5.62
2018-12-30T12:24:24.236Z,5.63
2018-12-30T12:26:49.035Z,5.56
2018-12-30T12:29:17.512Z,5.62
2018-12-30T12:31:46.203Z,5.68
2018-12-30T12:34:14.558Z,5.67
2018-12-30T12:36:43.018Z,5.66
2018-12-30T12:39:11.384Z,5.71
2018-12-30T12:41:41.507Z,5.65
2018-12-30T12:44:09.928Z,5.66
2018-12-30T12:46:39.067Z,5.66
2018-12-30T12:49:08.138Z,5.60
2018-12-30T12:51:36.682Z,5.70
2018-12-30T12:54:05.263Z,5.78
2018-12-30T12:56:34.238Z,5.70
2018-12-30T12:59:02.746Z,5.74
2018-12-30T13:01:31.203Z,5.77
2018-12-30T13:03:59.692Z,5.78
2018-12-30T13:06:28.058Z,5.72
2018-12-30T13:08:56.462Z,5.66
2018-12-30T13:11:24.963Z,5.64
2018-12-30T13:13:53.379Z,5.67
2018-12-30T13:16:21.733Z,5.69
2018-12-30T13:18:50.198Z,5.71
2018-12-30T13:21:19.001Z,5.76
2018-12-30T13:23:47.404Z,5.68
2018-12-30T13:26:16.339Z,5.63
2018-12-30T13:28:44.804Z,5.64
2018-12-30T13:31:13.311Z,5.65
2018-12-30T13:33:42.199Z,5.61
2018-12-30T13:36:11.120Z,5.65
2018-12-30T13:38:39.585Z,5.61
2018-12-30T13:41:12.736Z,5.61
2018-12-30T13:43:41.794Z,5.61
2018-12-30T13:46:10.227Z,5.53
2018-12-30T13:48:42.407Z,5.58
2018-12-30T13:51:10.841Z,5.55
2018-12-30T13:53:39.254Z,5.53
2018-12-30T13:56:08.270Z,5.50
2018-12-30T13:58:36.731Z,5.52
2018-12-30T14:01:05.171Z,5.54
2018-12-30T14:03:37.968Z,5.51
2018-12-30T14:06:06.435Z,5.61
2018-12-30T14:08:35.018Z,5.53
2018-12-30T14:11:03.453Z,5.56
2018-12-30T14:13:31.902Z,5.48
2018-12-30T14:16:00.265Z,5.51
2018-12-30T14:18:28.772Z,5.56
2018-12-30T14:20:57.644Z,5.51
2018-12-30T14:23:26.114Z,5.48
2018-12-30T14:25:54.767Z,5.57
2018-12-30T14:28:23.146Z,5.54
2018-12-30T14:30:51.530Z,5.51
2018-12-30T14:33:20.001Z,5.52
2018-12-30T14:35:48.775Z,5.50
2018-12-30T14:38:17.215Z,5.49
2018-12-30T14:40:45.621Z,5.49
2018-12-30T14:43:14.307Z,5.55
2018-12-30T14:45:42.832Z,5.50
2018-12-30T14:48:11.219Z,5.48
2018-12-30T14:50:39.734Z,5.51
2018-12-30T14:53:08.703Z,5.48
2018-12-30T14:55:37.113Z,5.51
2018-12-30T14:58:05.491Z,5.49
2018-12-30T15:00:34.435Z,5.46
2018-12-30T15:03:03.569Z,5.44
2018-12-30T15:05:32.177Z,5.51
2018-12-30T15:08:00.619Z,5.49
2018-12-30T15:10:29.717Z,5.48
2018-12-30T15:12:58.157Z,5.50
2018-12-30T15:15:26.554Z,5.49
2018-12-30T15:17:54.912Z,5.45
2018-12-30T15:20:23.375Z,5.46
2018-12-30T15:22:51.748Z,5.41
2018-12-30T15:25:20.113Z,5.42
2018-12-30T15:27:48.591Z,5.43
2018-12-30T15:30:17.021Z,5.40
2018-12-30T15:32:45.653Z,5.41
2018-12-30T15:35:14.008Z,5.42
2018-12-30T15:37:42.428Z,5.43
2018-12-30T15:40:10.872Z,5.45
2018-12-30T15:42:40.228Z,5.47
2018-12-30T15:45:08.669Z,5.44
2018-12-30T15:47:37.068Z,5.40
2018-12-30T15:50:07.764Z,5.39
2018-12-30T15:52:36.172Z,5.40
2018-12-30T15:55:04.820Z,5.39
2018-12-30T15:57:33.225Z,5.44
2018-12-30T16:00:01.689Z,5.40
2018-12-30T16:02:30.082Z,5.35
2018-12-30T16:04:59.023Z,5.35
2018-12-30T16:07:27.490Z,5.40
2018-12-30T16:09:56.139Z,5.35
2018-12-30T16:12:24.607Z,5.35
2018-12-30T16:14:53.050Z,5.38
2018-12-30T16:17:21.525Z,5.36
2018-12-30T16:19:50.070Z,5.31
2018-12-30T16:22:18.674Z,5.30
2018-12-30T16:24:47.802Z,5.33
2018-12-30T16:27:16.336Z,5.33
2018-12-30T16:29:45.219Z,5.37
2018-12-30T16:32:13.699Z,5.35
2018-12-30T16:34:42.556Z,5.34
2018-12-30T16:37:11.206Z,5.34
2018-12-30T16:39:40.148Z,5.32
2018-12-30T16:42:08.863Z,5.33
2018-12-30T16:44:41.524Z,5.30
2018-12-30T16:47:10.439Z,5.35
2018-12-30T16:49:39.639Z,5.27
2018-12-30T16:52:08.072Z,5.27
2018-12-30T16:54:38.361Z,5.27
2018-12-30T16:57:06.828Z,5.27
2018-12-30T16:59:35.314Z,5.22
2018-12-30T17:02:05.705Z,5.23
2018-12-30T17:04:34.590Z,5.25
2018-12-30T17:07:04.188Z,5.27
2018-12-30T17:09:34.847Z,5.29
2018-12-30T17:12:04.086Z,5.29
2018-12-30T17:14:33.380Z,5.28
2018-12-30T17:17:03.119Z,5.30
2018-12-30T17:19:35.099Z,5.27
2018-12-30T17:22:07.910Z,5.31
2018-12-30T17:24:36.849Z,5.31
2018-12-30T17:27:07.203Z,5.33
2018-12-30T17:29:35.955Z,5.32
2018-12-30T17:32:04.722Z,5.31
2018-12-30T17:34:33.820Z,5.31
2018-12-30T17:37:03.788Z,5.31
2018-12-30T17:39:32.356Z,5.30
2018-12-30T17:42:01.375Z,5.30
2018-12-30T17:44:30.508Z,5.32
2018-12-30T17:47:00.914Z,5.28
2018-12-30T17:49:29.655Z,5.34
2018-12-30T17:51:58.137Z,5.34
2018-12-30T17:54:30.285Z,5.36
2018-12-30T17:56:59.267Z,5.21
2018-12-30T17:59:28.909Z,5.30
2018-12-30T18:01:57.278Z,5.33
2018-12-30T18:04:25.655Z,5.36
2018-12-30T18:06:54.169Z,5.37
2018-12-30T18:09:23.069Z,5.39
2018-12-30T18:11:53.245Z,5.40
2018-12-30T18:14:21.622Z,5.41
2018-12-30T18:16:50.013Z,5.41
2018-12-30T18:19:18.472Z,5.39
2018-12-30T18:21:46.990Z,5.44
2018-12-30T18:24:15.378Z,5.46
2018-12-30T18:26:43.778Z,5.42
2018-12-30T18:29:12.205Z,5.34
2018-12-30T18:31:40.690Z,5.35
2018-12-30T18:34:09.055Z,5.37
2018-12-30T18:36:37.540Z,5.36
2018-12-30T18:39:07.257Z,5.28
2018-12-30T18:41:35.761Z,5.30
2018-12-30T18:44:04.272Z,5.34
2018-12-30T18:46:32.722Z,5.32
2018-12-30T18:49:01.275Z,5.32
2018-12-30T18:51:29.673Z,5.33
2018-12-30T18:53:58.032Z,5.28
2018-12-30T18:56:26.423Z,5.29
2018-12-30T18:58:54.787Z,5.33
2018-12-30T19:01:23.340Z,5.37
2018-12-30T19:03:51.773Z,5.36
2018-12-30T19:06:20.334Z,5.40
2018-12-30T19:08:48.700Z,5.41
2018-12-30T19:11:17.164Z,5.41
2018-12-30T19:13:45.873Z,5.41
2018-12-30T19:16:14.410Z,5.48
2018-12-30T19:18:42.783Z,5.46
2018-12-30T19:21:11.158Z,5.39
2018-12-30T19:23:39.570Z,5.37
2018-12-30T19:26:14.266Z,5.39
2018-12-30T19:28:38.189Z,5.39
2018-12-30T19:31:06.556Z,5.33
2018-12-30T19:33:34.957Z,5.37
2018-12-30T19:36:03.759Z,5.38
2018-12-30T19:38:32.166Z,5.39
2018-12-30T19:41:00.527Z,5.37
2018-12-30T19:43:28.991Z,5.37
2018-12-30T19:45:57.351Z,5.32
2018-12-30T19:48:25.779Z,5.34
2018-12-30T19:50:54.145Z,5.31
2018-12-30T19:53:22.541Z,5.30
2018-12-30T19:55:50.974Z,5.27
2018-12-30T19:58:19.369Z,5.25
2018-12-30T20:00:47.803Z,5.30
2018-12-30T20:03:16.437Z,5.29
2018-12-30T20:05:45.090Z,5.31
2018-12-30T20:08:13.586Z,5.29
2018-12-30T20:10:42.806Z,5.29
2018-12-30T20:13:11.204Z,5.29
2018-12-30T20:15:40.270Z,5.31
2018-12-30T20:18:09.408Z,5.27
2018-12-30T20:20:38.026Z,5.28
2018-12-30T20:23:08.970Z,5.29
2018-12-30T20:25:37.419Z,5.47
2018-12-30T20:28:05.844Z,5.24
2018-12-30T20:30:36.078Z,5.84
2018-12-30T20:33:06.688Z,5.30
2018-12-30T20:35:35.134Z,5.24
2018-12-30T20:38:03.762Z,5.24
2018-12-30T20:40:32.227Z,5.22
2018-12-30T20:43:00.695Z,5.18
2018-12-30T20:45:29.280Z,5.19
2018-12-30T20:47:57.733Z,5.23
2018-12-30T20:50:26.185Z,5.21
2018-12-30T20:52:54.617Z,5.22
2018-12-30T20:55:23.106Z,5.19
2018-12-30T20:57:51.586Z,5.23
2018-12-30T21:00:20.140Z,5.21
2018-12-30T21:02:48.518Z,5.21
2018-12-30T21:05:17.000Z,5.21
2018-12-30T21:07:45.441Z,5.30
2018-12-30T21:10:13.922Z,5.25
2018-12-30T21:12:42.284Z,5.25
2018-12-30T21:15:10.749Z,5.30
2018-12-30T21:17:39.109Z,5.26
2018-12-30T21:20:07.654Z,5.23
2018-12-30T21:22:36.203Z,5.23
2018-12-30T21:25:05.432Z,5.24
2018-12-30T21:27:34.272Z,5.23
2018-12-30T21:30:02.737Z,5.21
2018-12-30T21:32:31.202Z,5.21
2018-12-30T21:34:59.662Z,5.22
2018-12-30T21:37:28.188Z,5.27
2018-12-30T21:39:56.553Z,5.26
2018-12-30T21:42:24.980Z,5.24
2018-12-30T21:44:53.437Z,5.23
2018-12-30T21:47:24.164Z,5.24
2018-12-30T21:49:52.891Z,5.24
2018-12-30T21:52:21.386Z,5.21
2018-12-30T21:54:49.761Z,5.26
2018-12-30T21:57:18.148Z,5.23
2018-12-30T21:59:48.691Z,5.22
2018-12-30T22:02:17.560Z,5.19
2018-12-30T22:04:46.122Z,5.13
2018-12-30T22:07:14.534Z,5.13
2018-12-30T22:09:42.961Z,5.11
2018-12-30T22:12:11.371Z,5.14
2018-12-30T22:14:40.116Z,5.14
2018-12-30T22:17:09.705Z,5.16
2018-12-30T22:19:38.731Z,5.17
2018-12-30T22:22:11.330Z,5.21
2018-12-30T22:24:41.314Z,5.18
2018-12-30T22:27:13.674Z,5.18
2018-12-30T22:29:42.538Z,5.18
2018-12-30T22:32:11.841Z,5.21
2018-12-30T22:34:40.698Z,5.15
2018-12-30T22:37:09.634Z,5.16
2018-12-30T22:39:42.222Z,5.14
2018-12-30T22:42:14.184Z,5.09
2018-12-30T22:44:43.201Z,5.11
2018-12-30T22:47:12.760Z,5.10
2018-12-30T22:49:42.071Z,5.14
2018-12-30T22:52:11.252Z,5.12
2018-12-30T22:54:40.036Z,5.10
2018-12-30T22:57:13.532Z,5.13
2018-12-30T22:59:42.413Z,5.14
2018-12-30T23:02:11.412Z,5.12
2018-12-30T23:04:40.676Z,5.10
2018-12-30T23:07:17.827Z,5.14
2018-12-30T23:09:49.878Z,5.16
2018-12-30T23:12:18.395Z,5.14
2018-12-30T23:14:47.102Z,5.16
2018-12-30T23:17:17.324Z,5.21
2018-12-30T23:19:45.752Z,5.23
2018-12-30T23:22:14.136Z,5.18
2018-12-30T23:24:45.825Z,5.25
2018-12-30T23:27:14.184Z,5.27
2018-12-30T23:29:42.821Z,5.24
2018-12-30T23:32:11.307Z,5.25
2018-12-30T23:34:39.846Z,5.26
2018-12-30T23:37:09.000Z,5.27
2018-12-30T23:39:37.509Z,5.29
2018-12-30T23:42:06.398Z,5.28
2018-12-30T23:44:37.455Z,5.26
2018-12-30T23:47:06.552Z,5.25
2018-12-30T23:49:37.159Z,5.25
2018-12-30T23:52:05.677Z,5.26
2018-12-30T23:54:34.385Z,5.23
2018-12-30T23:57:02.824Z,5.26
2018-12-30T23:59:31.545Z,5.24
